createdAt,value
2023-04-18T00:00:28.311Z,99313.16
2023-04-18T00:03:32.192Z,99306.59
2023-04-18T00:06:36.116Z,99300.84
2023-04-18T00:09:39.292Z,99302.22
2023-04-18T00:12:43.150Z,99313.16
2023-04-18T00:15:46.430Z,99312.06
2023-04-18T00:18:49.579Z,99306.31
2023-04-18T00:21:53.466Z,99308.22
2023-04-18T00:24:56.118Z,99315.06
2023-04-18T00:27:59.228Z,99310.13
2023-04-18T00:31:02.158Z,99319.44
2023-04-18T00:34:07.743Z,99315.87
2023-04-18T00:37:10.640Z,99323.28
2023-04-18T00:40:14.025Z,99304.41
2023-04-18T00:43:17.037Z,99299.78
2023-04-18T00:46:20.197Z,99318.91
2023-04-18T00:49:24.029Z,99317.81
2023-04-18T00:52:27.850Z,99318.34
2023-04-18T00:55:30.904Z,99298.13
2023-04-18T00:58:34.409Z,99313.97
2023-04-18T01:01:37.670Z,99317.53
2023-04-18T01:04:43.840Z,99319.72
2023-04-18T01:07:46.745Z,99317.00
2023-04-18T01:10:49.976Z,99316.47
2023-04-18T01:14:04.253Z,99307.44
2023-04-18T01:17:10.997Z,99310.19
2023-04-18T01:20:13.862Z,99321.91
2023-04-18T01:23:18.463Z,99311.00
2023-04-18T01:26:21.442Z,99303.84
2023-04-18T01:29:27.713Z,99293.47
2023-04-18T01:32:32.643Z,99316.16
2023-04-18T01:35:35.806Z,99313.72
2023-04-18T01:38:38.828Z,99314.25
2023-04-18T01:41:42.447Z,99311.78
2023-04-18T01:44:45.559Z,99312.06
2023-04-18T01:47:48.628Z,99319.44
2023-04-18T01:50:51.511Z,99311.47
2023-04-18T01:53:54.570Z,99304.62
2023-04-18T01:56:57.359Z,99311.19
2023-04-18T02:00:00.661Z,99314.47
2023-04-18T02:03:04.907Z,99318.03
2023-04-18T02:06:08.408Z,99316.41
2023-04-18T02:09:11.353Z,99322.37
2023-04-18T02:12:14.613Z,99322.63
2023-04-18T02:15:17.612Z,99315.25
2023-04-18T02:18:22.131Z,99313.03
2023-04-18T02:21:24.923Z,99333.56
2023-04-18T02:24:28.236Z,99323.44
2023-04-18T02:27:31.069Z,99329.19
2023-04-18T02:30:34.299Z,99334.41
2023-04-18T02:33:38.187Z,99328.38
2023-04-18T02:36:41.706Z,99330.81
2023-04-18T02:39:46.294Z,99333.84
2023-04-18T02:42:49.779Z,99324.53
2023-04-18T02:45:52.683Z,99333.56
2023-04-18T02:48:55.911Z,99336.28
2023-04-18T02:51:59.074Z,99330.28
2023-04-18T02:55:02.283Z,99335.75
2023-04-18T02:58:06.241Z,99339.28
2023-04-18T03:01:11.452Z,99333.25
2023-04-18T03:04:16.656Z,99340.91
2023-04-18T03:07:19.968Z,99333.53
2023-04-18T03:10:23.803Z,99337.34
2023-04-18T03:13:27.211Z,99348.00
2023-04-18T03:16:31.036Z,99341.44
2023-04-18T03:19:34.401Z,99345.28
2023-04-18T03:22:39.089Z,99333.25
2023-04-18T03:25:42.449Z,99339.59
2023-04-18T03:28:45.808Z,99355.69
2023-04-18T03:31:49.617Z,99351.31
2023-04-18T03:34:52.615Z,99344.75
2023-04-18T03:37:56.552Z,99343.94
2023-04-18T03:40:59.559Z,99331.91
2023-04-18T03:44:03.476Z,99346.41
2023-04-18T03:47:09.959Z,99341.75
2023-04-18T03:50:13.971Z,99336.56
2023-04-18T03:53:17.241Z,99345.03
2023-04-18T03:56:20.332Z,99345.81
2023-04-18T03:59:24.100Z,99352.34
2023-04-18T04:02:27.265Z,99358.34
2023-04-18T04:05:30.883Z,99360.50
2023-04-18T04:08:34.118Z,99359.13
2023-04-18T04:11:37.981Z,99360.75
2023-04-18T04:14:42.054Z,99369.19
2023-04-18T04:17:45.418Z,99364.81
2023-04-18T04:20:49.092Z,99368.37
2023-04-18T04:23:52.787Z,99377.94
2023-04-18T04:26:57.242Z,99361.25
2023-04-18T04:30:00.900Z,99378.25
2023-04-18T04:33:03.897Z,99376.06
2023-04-18T04:36:07.842Z,99381.53
2023-04-18T04:39:11.834Z,99382.09
2023-04-18T04:42:16.295Z,99387.84
2023-04-18T04:45:20.201Z,99380.75
2023-04-18T04:48:24.913Z,99384.84
2023-04-18T04:51:28.824Z,99393.31
2023-04-18T04:54:32.500Z,99402.38
2023-04-18T04:57:35.910Z,99404.84
2023-04-18T05:00:39.726Z,99401.59
2023-04-18T05:03:43.755Z,99407.59
2023-04-18T05:06:46.991Z,99407.88
2023-04-18T05:09:49.915Z,99400.72
2023-04-18T05:12:53.021Z,99414.41
2023-04-18T05:15:56.839Z,99416.88
2023-04-18T05:19:00.818Z,99422.91
2023-04-18T05:22:03.944Z,99424.28
2023-04-18T05:25:07.946Z,99418.56
2023-04-18T05:28:10.739Z,99413.06
2023-04-18T05:31:13.927Z,99421.59
2023-04-18T05:34:16.992Z,99423.75
2023-04-18T05:37:20.099Z,99421.31
2023-04-18T05:40:22.995Z,99427.66
2023-04-18T05:43:26.467Z,99429.59
2023-04-18T05:46:29.427Z,99418.62
2023-04-18T05:49:32.844Z,99431.78
2023-04-18T05:52:38.231Z,99443.25
2023-04-18T05:55:41.718Z,99446.81
2023-04-18T05:58:46.835Z,99450.94
2023-04-18T06:01:50.100Z,99453.13
2023-04-18T06:04:53.482Z,99435.09
2023-04-18T06:07:56.402Z,99443.28
2023-04-18T06:10:59.662Z,99453.16
2023-04-18T06:14:03.147Z,99449.59
2023-04-18T06:17:07.367Z,99452.31
2023-04-18T06:20:11.124Z,99451.78
2023-04-18T06:23:14.152Z,99461.63
2023-04-18T06:26:18.592Z,99470.13
2023-04-18T06:29:23.219Z,99463.56
2023-04-18T06:32:26.238Z,99465.81
2023-04-18T06:35:31.112Z,99477.56
2023-04-18T06:38:34.467Z,99477.28
2023-04-18T06:41:37.654Z,99483.84
2023-04-18T06:44:40.474Z,99476.00
2023-04-18T06:47:43.579Z,99479.78
2023-04-18T06:50:46.320Z,99475.69
2023-04-18T06:53:52.709Z,99473.22
2023-04-18T06:56:55.952Z,99482.56
2023-04-18T06:59:59.033Z,99488.84
2023-04-18T07:03:04.868Z,99496.25
2023-04-18T07:06:10.591Z,99481.75
2023-04-18T07:09:13.311Z,99486.16
2023-04-18T07:12:16.719Z,99490.81
2023-04-18T07:15:19.405Z,99485.97
2023-04-18T07:18:34.148Z,99490.09
2023-04-18T07:21:40.758Z,99486.25
2023-04-18T07:24:44.275Z,99489.16
2023-04-18T07:27:47.545Z,99486.47
2023-04-18T07:30:50.707Z,99494.97
2023-04-18T07:33:53.519Z,99496.56
2023-04-18T07:37:00.047Z,99496.31
2023-04-18T07:40:02.952Z,99497.75
2023-04-18T07:43:06.223Z,99497.09
2023-04-18T07:46:09.121Z,99492.78
2023-04-18T07:49:12.722Z,99505.72
2023-04-18T07:52:15.860Z,99492.84
2023-04-18T07:55:19.323Z,99512.59
2023-04-18T07:58:22.136Z,99507.91
2023-04-18T08:01:27.195Z,99514.75
2023-04-18T08:04:30.799Z,99513.13
2023-04-18T08:07:33.804Z,99521.06
2023-04-18T08:10:37.509Z,99518.84
2023-04-18T08:13:40.367Z,99520.78
2023-04-18T08:16:43.515Z,99504.84
2023-04-18T08:19:46.395Z,99521.84
2023-04-18T08:23:05.115Z,99526.78
2023-04-18T08:26:09.431Z,99526.19
2023-04-18T08:29:13.231Z,99533.03
2023-04-18T08:32:16.402Z,99522.06
2023-04-18T08:35:19.485Z,99530.59
2023-04-18T08:38:22.380Z,99542.13
2023-04-18T08:41:27.250Z,99533.94
2023-04-18T08:44:30.722Z,99535.56
2023-04-18T08:47:35.284Z,99536.37
2023-04-18T08:50:38.219Z,99549.25
2023-04-18T08:53:42.156Z,99541.59
2023-04-18T08:56:45.633Z,99551.47
2023-04-18T08:59:51.101Z,99549.00
2023-04-18T09:02:57.153Z,99550.38
2023-04-18T09:06:16.270Z,99547.06
2023-04-18T09:09:19.786Z,99554.19
2023-04-18T09:12:27.810Z,99558.81
2023-04-18T09:15:31.687Z,99550.28
2023-04-18T09:18:35.340Z,99568.91
2023-04-18T09:21:46.250Z,99560.59
2023-04-18T09:24:57.380Z,99570.41
2023-04-18T09:28:02.053Z,99578.22
2023-04-18T09:31:13.450Z,99568.06
2023-04-18T09:34:25.098Z,99571.03
2023-04-18T09:37:29.095Z,99571.28
2023-04-18T09:40:32.737Z,99583.44
2023-04-18T09:43:35.814Z,99573.81
2023-04-18T09:46:38.709Z,99578.72
2023-04-18T09:49:41.767Z,99577.38
2023-04-18T09:52:45.854Z,99581.13
2023-04-18T09:55:55.576Z,99577.34
2023-04-18T09:59:08.778Z,99588.50
2023-04-18T10:02:16.449Z,99570.66
2023-04-18T10:05:22.532Z,99574.25
2023-04-18T10:08:26.460Z,99565.47
2023-04-18T10:11:31.790Z,99582.34
2023-04-18T10:14:36.352Z,99581.63
2023-04-18T10:18:03.765Z,99579.00
2023-04-18T10:21:09.596Z,99588.22
2023-04-18T10:24:48.257Z,99569.84
2023-04-18T10:28:04.986Z,99576.44
2023-04-18T10:31:08.402Z,99571.09
2023-04-18T10:34:17.560Z,99581.75
2023-04-18T10:37:20.725Z,99581.00
2023-04-18T10:40:34.305Z,99585.41
2023-04-18T10:44:23.707Z,99576.09
2023-04-18T10:47:26.775Z,99570.06
2023-04-18T10:50:29.973Z,99570.62
2023-04-18T10:53:32.632Z,99570.91
2023-04-18T10:56:36.072Z,99568.72
2023-04-18T10:59:43.001Z,99557.72
2023-04-18T11:02:52.023Z,99568.13
2023-04-18T11:06:01.999Z,99561.25
2023-04-18T11:09:13.658Z,99567.00
2023-04-18T11:12:16.850Z,99553.88
2023-04-18T11:15:22.296Z,99565.13
2023-04-18T11:18:25.110Z,99561.03
2023-04-18T11:21:30.646Z,99564.91
2023-04-18T11:24:34.290Z,99558.03
2023-04-18T11:27:37.424Z,99558.59
2023-04-18T11:30:41.292Z,99558.59
2023-04-18T11:33:47.780Z,99565.16
2023-04-18T11:36:51.501Z,99560.19
2023-04-18T11:39:54.703Z,99551.41
2023-04-18T11:43:01.336Z,99557.38
2023-04-18T11:46:04.501Z,99549.38
2023-04-18T11:49:07.535Z,99556.63
2023-04-18T11:52:14.138Z,99556.75
2023-04-18T11:55:25.542Z,99558.53
2023-04-18T11:58:35.019Z,99560.56
2023-04-18T12:01:37.643Z,99565.16
2023-04-18T12:05:00.409Z,99543.78
2023-04-18T12:08:07.108Z,99556.41
2023-04-18T12:11:10.406Z,99560.41
2023-04-18T12:14:21.740Z,99552.63
2023-04-18T12:17:27.260Z,99543.09
2023-04-18T12:20:38.993Z,99543.34
2023-04-18T12:23:42.952Z,99560.56
2023-04-18T12:26:46.027Z,99534.09
2023-04-18T12:29:49.127Z,99541.84
2023-04-18T12:32:54.644Z,99546.19
2023-04-18T12:35:57.651Z,99543.22
2023-04-18T12:39:00.371Z,99545.91
2023-04-18T12:42:04.629Z,99529.44
2023-04-18T12:45:09.959Z,99532.97
2023-04-18T12:48:13.449Z,99536.87
2023-04-18T12:51:16.370Z,99538.72
2023-04-18T12:54:19.871Z,99545.00
2023-04-18T12:57:22.651Z,99542.22
2023-04-18T13:00:28.315Z,99544.97
2023-04-18T13:03:32.025Z,99522.19
2023-04-18T13:06:35.698Z,99532.91
2023-04-18T13:09:38.525Z,99540.16
2023-04-18T13:12:41.891Z,99538.97
2023-04-18T13:15:48.598Z,99531.75
2023-04-18T13:18:51.708Z,99535.09
2023-04-18T13:21:54.597Z,99540.16
2023-04-18T13:24:57.879Z,99533.34
2023-04-18T13:28:01.180Z,99537.16
2023-04-18T13:31:04.618Z,99536.34
2023-04-18T13:34:07.436Z,99521.22
2023-04-18T13:37:10.798Z,99511.22
2023-04-18T13:40:13.727Z,99526.91
2023-04-18T13:43:16.921Z,99525.59
2023-04-18T13:46:19.634Z,99525.62
2023-04-18T13:49:23.030Z,99515.25
2023-04-18T13:52:26.222Z,99513.25
2023-04-18T13:55:29.437Z,99519.13
2023-04-18T13:58:32.475Z,99516.38
2023-04-18T14:01:35.667Z,99525.97
2023-04-18T14:04:39.025Z,99523.47
2023-04-18T14:07:42.070Z,99526.38
2023-04-18T14:10:45.336Z,99516.25
2023-04-18T14:13:48.743Z,99530.28
2023-04-18T14:16:53.593Z,99519.34
2023-04-18T14:19:56.345Z,99532.00
2023-04-18T14:22:59.369Z,99533.53
2023-04-18T14:26:02.176Z,99526.13
2023-04-18T14:29:05.306Z,99531.19
2023-04-18T14:32:08.245Z,99531.00
2023-04-18T14:35:11.174Z,99527.78
2023-04-18T14:38:14.300Z,99535.28
2023-04-18T14:41:17.511Z,99519.91
2023-04-18T14:44:21.238Z,99513.28
2023-04-18T14:47:27.019Z,99528.59
2023-04-18T14:50:29.943Z,99522.78
2023-04-18T14:53:33.063Z,99523.16
2023-04-18T14:56:36.068Z,99522.03
2023-04-18T14:59:39.373Z,99518.41
2023-04-18T15:02:42.760Z,99509.28
2023-04-18T15:05:49.210Z,99514.31
2023-04-18T15:08:52.430Z,99515.97
2023-04-18T15:11:55.676Z,99516.00
2023-04-18T15:15:00.411Z,99504.03
2023-04-18T15:18:04.336Z,99523.56
2023-04-18T15:21:07.140Z,99524.47
2023-04-18T15:24:10.306Z,99520.44
2023-04-18T15:27:13.387Z,99523.81
2023-04-18T15:30:16.538Z,99518.63
2023-04-18T15:33:20.508Z,99506.16
2023-04-18T15:36:23.766Z,99531.41
2023-04-18T15:39:26.665Z,99528.37
2023-04-18T15:42:30.384Z,99533.59
2023-04-18T15:45:33.462Z,99534.75
2023-04-18T15:48:36.525Z,99529.81
2023-04-18T15:51:39.482Z,99536.72
2023-04-18T15:54:48.481Z,99532.34
2023-04-18T15:57:51.316Z,99537.56
2023-04-18T16:00:54.411Z,99542.47
2023-04-18T16:03:58.261Z,99543.00
2023-04-18T16:07:01.081Z,99540.03
2023-04-18T16:10:05.213Z,99550.19
2023-04-18T16:13:08.458Z,99547.44
2023-04-18T16:16:12.207Z,99548.56
2023-04-18T16:19:17.623Z,99548.28
2023-04-18T16:22:20.807Z,99547.44
2023-04-18T16:25:23.688Z,99545.00
2023-04-18T16:28:26.738Z,99548.50
2023-04-18T16:31:29.536Z,99548.56
2023-04-18T16:34:34.313Z,99551.63
2023-04-18T16:37:38.138Z,99554.97
2023-04-18T16:40:41.298Z,99534.75
2023-04-18T16:43:44.076Z,99546.53
2023-04-18T16:46:47.212Z,99537.47
2023-04-18T16:49:51.388Z,99542.53
2023-04-18T16:52:54.775Z,99543.50
2023-04-18T16:55:57.687Z,99562.75
2023-04-18T16:59:00.931Z,99569.66
2023-04-18T17:02:04.516Z,99568.78
2023-04-18T17:05:07.833Z,99553.72
2023-04-18T17:08:10.502Z,99562.38
2023-04-18T17:11:13.832Z,99552.47
2023-04-18T17:14:17.540Z,99559.13
2023-04-18T17:17:20.663Z,99562.53
2023-04-18T17:20:23.808Z,99561.63
2023-04-18T17:23:26.811Z,99554.91
2023-04-18T17:26:38.971Z,99558.16
2023-04-18T17:29:42.070Z,99570.78
2023-04-18T17:32:46.132Z,99576.47
2023-04-18T17:35:50.359Z,99582.37
2023-04-18T17:38:53.063Z,99579.97
2023-04-18T17:41:56.182Z,99567.41
2023-04-18T17:45:01.277Z,99580.56
2023-04-18T17:48:04.669Z,99589.75
2023-04-18T17:51:07.411Z,99588.94
2023-04-18T17:54:11.215Z,99590.19
2023-04-18T17:57:14.063Z,99593.69
2023-04-18T18:00:17.448Z,99602.13
2023-04-18T18:03:20.721Z,99601.34
2023-04-18T18:06:23.611Z,99609.34
2023-04-18T18:09:26.845Z,99605.28
2023-04-18T18:12:29.533Z,99607.19
2023-04-18T18:15:32.538Z,99625.53
2023-04-18T18:18:35.560Z,99624.94
2023-04-18T18:21:38.659Z,99623.88
2023-04-18T18:24:41.498Z,99623.62
2023-04-18T18:27:44.529Z,99617.78
2023-04-18T18:30:47.501Z,99622.75
2023-04-18T18:33:51.429Z,99630.66
2023-04-18T18:36:54.210Z,99632.81
2023-04-18T18:39:57.405Z,99626.22
2023-04-18T18:43:00.792Z,99633.13
2023-04-18T18:46:03.871Z,99624.38
2023-04-18T18:49:06.648Z,99625.72
2023-04-18T18:52:09.874Z,99629.53
2023-04-18T18:55:12.601Z,99629.53
2023-04-18T18:58:15.720Z,99629.53
2023-04-18T19:01:18.516Z,99631.16
2023-04-18T19:04:21.857Z,99641.84
2023-04-18T19:07:24.860Z,99648.94
2023-04-18T19:10:28.238Z,99671.75
2023-04-18T19:13:30.986Z,99667.00
2023-04-18T19:16:36.015Z,99660.91
2023-04-18T19:19:38.862Z,99657.50
2023-04-18T19:22:41.956Z,99672.03
2023-04-18T19:25:45.047Z,99671.94
2023-04-18T19:28:49.087Z,99661.22
2023-04-18T19:31:52.209Z,99666.44
2023-04-18T19:34:55.289Z,99665.13
2023-04-18T19:38:01.732Z,99673.84
2023-04-18T19:41:05.629Z,99681.22
2023-04-18T19:44:12.599Z,99655.75
2023-04-18T19:47:17.174Z,99670.00
2023-04-18T19:50:20.373Z,99666.56
2023-04-18T19:53:23.925Z,99674.16
2023-04-18T19:56:26.766Z,99671.38
2023-04-18T19:59:29.731Z,99665.59
2023-04-18T20:02:32.527Z,99644.53
2023-04-18T20:05:36.115Z,99639.41
2023-04-18T20:08:45.130Z,99638.50
2023-04-18T20:11:48.521Z,99647.12
2023-04-18T20:14:51.483Z,99620.34
2023-04-18T20:17:54.556Z,99635.91
2023-04-18T20:20:57.672Z,99659.59
2023-04-18T20:24:00.573Z,99650.66
2023-04-18T20:27:03.461Z,99628.63
2023-04-18T20:30:06.791Z,99639.16
2023-04-18T20:33:09.491Z,99643.59
2023-04-18T20:36:14.108Z,99627.78
2023-04-18T20:39:17.233Z,99632.56
2023-04-18T20:42:20.972Z,99626.94
2023-04-18T20:45:24.817Z,99624.69
2023-04-18T20:48:27.690Z,99634.47
2023-04-18T20:51:31.840Z,99634.25
2023-04-18T20:54:34.812Z,99622.97
2023-04-18T20:57:37.382Z,99612.06
2023-04-18T21:00:41.618Z,99619.44
2023-04-18T21:03:44.526Z,99592.66
2023-04-18T21:06:47.803Z,99580.13
2023-04-18T21:09:50.764Z,99585.38
2023-04-18T21:12:54.197Z,99597.56
2023-04-18T21:15:57.236Z,99596.28
2023-04-18T21:19:00.256Z,99601.59
2023-04-18T21:22:03.187Z,99608.84
2023-04-18T21:25:07.546Z,99601.28
2023-04-18T21:28:10.462Z,99592.84
2023-04-18T21:31:13.566Z,99608.78
2023-04-18T21:34:16.511Z,99616.44
2023-04-18T21:37:19.620Z,99616.06
2023-04-18T21:40:22.847Z,99623.84
2023-04-18T21:43:26.221Z,99622.50
2023-04-18T21:46:29.012Z,99621.75
2023-04-18T21:49:31.987Z,99630.44
2023-04-18T21:52:34.728Z,99622.97
2023-04-18T21:55:37.753Z,99628.47
2023-04-18T21:58:40.439Z,99630.13
2023-04-18T22:01:43.542Z,99639.53
2023-04-18T22:04:48.133Z,99637.13
2023-04-18T22:07:58.111Z,99649.19
2023-04-18T22:11:01.873Z,99658.19
2023-04-18T22:14:05.265Z,99653.03
2023-04-18T22:17:09.303Z,99645.06
2023-04-18T22:20:12.856Z,99672.19
2023-04-18T22:23:16.027Z,99667.13
2023-04-18T22:26:18.770Z,99670.09
2023-04-18T22:29:21.933Z,99676.28
2023-04-18T22:32:24.586Z,99657.87
2023-04-18T22:35:27.733Z,99665.81
2023-04-18T22:38:30.496Z,99666.06
2023-04-18T22:41:33.593Z,99665.72
2023-04-18T22:44:36.491Z,99650.87
2023-04-18T22:47:39.711Z,99651.63
2023-04-18T22:50:42.916Z,99651.56
2023-04-18T22:53:46.438Z,99655.22
2023-04-18T22:56:49.915Z,99634.81
2023-04-18T22:59:53.021Z,99640.81
2023-04-18T23:02:55.881Z,99638.09
2023-04-18T23:05:58.898Z,99637.94
2023-04-18T23:09:02.326Z,99639.09
2023-04-18T23:12:05.710Z,99627.37
2023-04-18T23:15:08.899Z,99620.78
2023-04-18T23:18:11.921Z,99624.22
2023-04-18T23:21:14.778Z,99624.00
2023-04-18T23:24:18.019Z,99604.00
2023-04-18T23:27:20.692Z,99620.13
2023-04-18T23:30:25.116Z,99601.44
2023-04-18T23:33:27.750Z,99612.13
2023-04-18T23:36:31.233Z,99609.22
2023-04-18T23:39:33.963Z,99612.69
2023-04-18T23:42:37.208Z,99587.28
2023-04-18T23:45:39.914Z,99585.31
2023-04-18T23:48:42.985Z,99601.12
2023-04-18T23:51:45.872Z,99602.47
2023-04-18T23:54:48.920Z,99587.59
2023-04-18T23:57:51.480Z,99579.09
